Time;durP1;ratioP1;P1;durP2;ratioP2;P2;SDS_P1;SDS_P2;PMS_P1;PMS_P2;Temp;Humidity;BMP_temperature;BMP_pressure;BME280_temperature;BME280_humidity;BME280_pressure;Samples;Min_cycle;Max_cycle;Signal;HPM_P1;HPM_P2
2022/05/09 00:03:04;;;;;;;5.30;3.38;;;;;;;;;;10469827;28;20017;-71
2022/05/09 00:08:05;;;;;;;12.17;3.77;;;;;;;;;;10486187;28;20027;-74
2022/05/09 00:13:05;;;;;;;3.60;3.13;;;;;;;;;;10486479;28;20039;-71
2022/05/09 00:18:06;;;;;;;8.73;3.77;;;;;;;;;;10468827;28;20335;-71
2022/05/09 00:23:06;;;;;;;5.25;3.92;;;;;;;;;;10486948;28;20013;-72
2022/05/09 00:28:06;;;;;;;7.55;4.55;;;;;;;;;;10487001;28;20033;-72
2022/05/09 00:33:07;;;;;;;10.97;4.30;;;;;;;;;;10469838;28;20028;-71
2022/05/09 00:38:08;;;;;;;7.55;4.85;;;;;;;;;;10470055;28;20291;-70
2022/05/09 00:43:28;;;;;;;5.65;4.75;;;;;;;;;;10487145;28;20158;-71
2022/05/09 00:48:28;;;;;;;9.80;5.20;;;;;;;;;;10486417;28;20039;-71
2022/05/09 00:53:30;;;;;;;11.27;5.88;;;;;;;;;;10488775;28;20025;-71
2022/05/09 00:58:38;;;;;;;7.03;4.65;;;;;;;;;;10486931;28;20031;-71
2022/05/09 01:03:43;;;;;;;11.73;5.17;;;;;;;;;;10485881;28;20013;-71
2022/05/09 01:08:43;;;;;;;14.98;5.75;;;;;;;;;;10468586;28;20392;-70
2022/05/09 01:13:51;;;;;;;7.65;6.13;;;;;;;;;;10468886;28;20028;-72
2022/05/09 01:18:52;;;;;;;6.43;5.60;;;;;;;;;;10468167;28;20381;-70
2022/05/09 01:23:52;;;;;;;6.80;5.72;;;;;;;;;;10485087;28;20449;-69
2022/05/09 01:28:54;;;;;;;10.75;6.25;;;;;;;;;;10468048;28;20033;-72
2022/05/09 01:33:55;;;;;;;13.55;6.82;;;;;;;;;;10451261;28;20037;-72
2022/05/09 01:39:01;;;;;;;9.00;7.22;;;;;;;;;;10467680;28;20028;-73
2022/05/09 01:44:02;;;;;;;8.25;5.45;;;;;;;;;;10467048;28;20029;-74
2022/05/09 01:54:21;;;;;;;7.95;6.15;;;;;;;;;;10485688;28;20511;-71
2022/05/09 01:59:22;;;;;;;9.40;6.53;;;;;;;;;;10467731;28;20116;-72
2022/05/09 02:04:23;;;;;;;12.00;7.03;;;;;;;;;;10467173;28;20043;-69
2022/05/09 02:09:23;;;;;;;9.93;6.43;;;;;;;;;;10468084;28;20101;-72
2022/05/09 02:14:24;;;;;;;13.05;6.88;;;;;;;;;;10490327;28;20671;-71
2022/05/09 02:19:25;;;;;;;8.15;5.20;;;;;;;;;;10475379;28;20520;-75
2022/05/09 02:24:27;;;;;;;11.90;6.60;;;;;;;;;;10475519;28;20518;-72
2022/05/09 02:29:27;;;;;;;9.02;6.07;;;;;;;;;;10475005;28;20033;-73
2022/05/09 02:34:28;;;;;;;14.27;6.13;;;;;;;;;;10474432;28;20056;-75
2022/05/09 02:39:28;;;;;;;11.48;7.05;;;;;;;;;;10492965;28;20495;-70
2022/05/09 02:44:28;;;;;;;9.23;6.13;;;;;;;;;;10492855;28;20407;-72
2022/05/09 02:49:29;;;;;;;14.45;6.72;;;;;;;;;;10489927;28;20039;-71
2022/05/09 02:54:29;;;;;;;22.10;6.75;;;;;;;;;;10489288;28;20029;-69
2022/05/09 02:59:29;;;;;;;15.07;8.47;;;;;;;;;;10472470;28;20013;-71
2022/05/09 03:04:39;;;;;;;9.77;7.25;;;;;;;;;;10473310;28;20032;-72
2022/05/09 03:09:41;;;;;;;10.93;6.63;;;;;;;;;;10491317;28;20036;-71
2022/05/09 03:14:41;;;;;;;8.27;5.82;;;;;;;;;;10473344;28;20107;-71
2022/05/09 03:19:41;;;;;;;10.18;6.75;;;;;;;;;;10473139;28;20016;-74
2022/05/09 03:24:42;;;;;;;10.70;7.55;;;;;;;;;;10488467;28;20051;-72
2022/05/09 03:29:42;;;;;;;8.73;6.63;;;;;;;;;;10489332;28;20494;-74
2022/05/09 03:34:46;;;;;;;14.00;7.38;;;;;;;;;;10489223;28;20310;-72
2022/05/09 03:39:46;;;;;;;10.27;7.30;;;;;;;;;;10470823;28;20021;-73
2022/05/09 03:44:47;;;;;;;11.85;7.40;;;;;;;;;;10489749;28;20055;-74
2022/05/09 03:49:47;;;;;;;10.18;6.60;;;;;;;;;;10470889;28;20017;-72
2022/05/09 03:54:47;;;;;;;9.17;6.87;;;;;;;;;;10488200;28;20033;-73
2022/05/09 03:59:48;;;;;;;8.75;5.50;;;;;;;;;;10471369;28;20024;-74
2022/05/09 04:04:48;;;;;;;9.45;6.50;;;;;;;;;;10487670;28;20028;-73
2022/05/09 04:09:48;;;;;;;8.68;6.50;;;;;;;;;;10470632;28;20024;-72
2022/05/09 04:20:09;;;;;;;10.30;6.90;;;;;;;;;;10486684;28;20025;-75
2022/05/09 04:25:09;;;;;;;8.75;6.72;;;;;;;;;;10485958;28;20428;-70
2022/05/09 04:30:11;;;;;;;12.70;7.00;;;;;;;;;;10468828;28;20031;-72
2022/05/09 04:35:17;;;;;;;7.88;5.32;;;;;;;;;;10484591;28;20044;-74
2022/05/09 04:40:19;;;;;;;7.32;5.88;;;;;;;;;;10469317;28;20366;-73
2022/05/09 04:45:19;;;;;;;11.73;5.60;;;;;;;;;;10468974;28;20034;-74
2022/05/09 04:50:21;;;;;;;8.40;6.00;;;;;;;;;;10486165;28;20115;-72
2022/05/09 04:55:22;;;;;;;12.68;5.78;;;;;;;;;;10485295;28;20024;-72
2022/05/09 05:00:25;;;;;;;10.03;6.07;;;;;;;;;;10486545;28;20145;-71
2022/05/09 05:05:25;;;;;;;13.10;7.93;;;;;;;;;;10467867;28;20111;-73
2022/05/09 05:10:26;;;;;;;12.32;7.28;;;;;;;;;;10468804;28;20025;-74
2022/05/09 05:15:27;;;;;;;15.82;6.25;;;;;;;;;;10467900;28;20481;-71
2022/05/09 05:20:27;;;;;;;11.35;6.43;;;;;;;;;;10468075;28;20024;-71
2022/05/09 05:25:28;;;;;;;13.10;6.73;;;;;;;;;;10485776;28;20039;-72
2022/05/09 05:30:29;;;;;;;9.57;6.53;;;;;;;;;;10485854;28;20043;-73
2022/05/09 05:35:29;;;;;;;20.87;6.80;;;;;;;;;;10450969;28;20147;-73
2022/05/09 05:40:29;;;;;;;7.07;5.97;;;;;;;;;;10485567;28;20489;-70
2022/05/09 05:45:30;;;;;;;12.18;5.60;;;;;;;;;;10467615;28;20109;-76
2022/05/09 05:50:30;;;;;;;8.98;5.40;;;;;;;;;;10475165;28;20036;-73
2022/05/09 05:55:30;;;;;;;14.63;5.77;;;;;;;;;;10459025;28;20031;-71
2022/05/09 06:00:30;;;;;;;11.25;6.15;;;;;;;;;;10475114;28;20031;-71
2022/05/09 06:05:31;;;;;;;7.97;5.15;;;;;;;;;;10493009;28;20409;-73
2022/05/09 06:10:31;;;;;;;13.77;5.70;;;;;;;;;;10492215;28;20051;-72
2022/05/09 06:15:32;;;;;;;7.87;5.10;;;;;;;;;;10474986;28;20290;-72
2022/05/09 06:20:34;;;;;;;8.30;4.35;;;;;;;;;;10492487;28;20081;-71
2022/05/09 06:25:35;;;;;;;7.72;3.88;;;;;;;;;;10474811;28;20035;-75
2022/05/09 06:30:35;;;;;;;12.82;4.80;;;;;;;;;;10474298;28;20031;-71
2022/05/09 06:35:45;;;;;;;10.10;5.65;;;;;;;;;;10473781;28;20048;-72
2022/05/09 06:40:46;;;;;;;8.90;3.78;;;;;;;;;;10474273;28;20021;-72
2022/05/09 06:45:46;;;;;;;21.25;3.80;;;;;;;;;;10474141;28;20027;-73
2022/05/09 06:50:50;;;;;;;9.18;3.40;;;;;;;;;;10474329;28;20020;-72
2022/05/09 06:55:50;;;;;;;10.23;3.72;;;;;;;;;;10473207;28;20083;-72
2022/05/09 07:00:51;;;;;;;11.97;5.10;;;;;;;;;;10489763;28;20015;-73
2022/05/09 07:05:52;;;;;;;9.80;4.47;;;;;;;;;;10491478;28;20032;-72
2022/05/09 07:10:52;;;;;;;11.43;3.63;;;;;;;;;;10473177;28;20115;-73
2022/05/09 07:15:57;;;;;;;9.07;3.90;;;;;;;;;;10472937;28;20081;-74
2022/05/09 07:20:57;;;;;;;6.47;3.30;;;;;;;;;;10489682;28;20414;-71
2022/05/09 07:25:57;;;;;;;10.23;3.93;;;;;;;;;;10473525;28;20033;-72
2022/05/09 07:31:01;;;;;;;14.37;4.60;;;;;;;;;;10489510;28;20513;-72
2022/05/09 07:36:02;;;;;;;10.73;3.38;;;;;;;;;;10490220;28;20079;-71
2022/05/09 07:41:02;;;;;;;16.02;3.60;;;;;;;;;;10455307;28;20107;-71
2022/05/09 07:46:03;;;;;;;15.00;3.50;;;;;;;;;;10471853;28;20515;-77
2022/05/09 07:51:03;;;;;;;9.00;2.83;;;;;;;;;;10471892;28;20126;-72
2022/05/09 07:56:04;;;;;;;4.10;1.92;;;;;;;;;;10488086;28;20039;-72
2022/05/09 08:01:05;;;;;;;6.40;2.25;;;;;;;;;;10487784;28;20031;-73
2022/05/09 08:06:06;;;;;;;4.25;2.10;;;;;;;;;;10470968;28;20028;-74
2022/05/09 08:11:07;;;;;;;6.82;2.50;;;;;;;;;;10469665;28;20058;-72
2022/05/09 08:16:07;;;;;;;2.80;1.23;;;;;;;;;;10470486;28;20569;-72
2022/05/09 08:21:09;;;;;;;3.93;2.20;;;;;;;;;;10470826;28;20107;-71
2022/05/09 08:26:11;;;;;;;6.15;1.70;;;;;;;;;;10470489;28;20031;-72
2022/05/09 08:31:16;;;;;;;4.40;2.03;;;;;;;;;;10470136;28;20518;-71
2022/05/09 08:36:45;;;;;;;14.23;2.25;;;;;;;;;;10469282;28;20579;-74
2022/05/09 08:41:47;;;;;;;7.10;1.77;;;;;;;;;;10486689;28;20094;-75
2022/05/09 08:47:06;;;;;;;11.57;3.10;;;;;;;;;;10469366;28;20032;-72
2022/05/09 08:52:23;;;;;;;14.45;2.83;;;;;;;;;;10469196;28;20031;-72
2022/05/09 08:57:25;;;;;;;4.40;2.08;;;;;;;;;;10452290;28;20087;-71
2022/05/09 09:02:26;;;;;;;12.27;2.15;;;;;;;;;;10452323;28;20021;-70
2022/05/09 09:07:29;;;;;;;17.02;3.05;;;;;;;;;;10468755;28;20826;-71
2022/05/09 09:12:37;;;;;;;4.90;1.73;;;;;;;;;;10467856;28;20020;-72
2022/05/09 09:17:56;;;;;;;9.93;1.92;;;;;;;;;;10486075;28;20588;-72
2022/05/09 09:23:16;;;;;;;5.15;1.83;;;;;;;;;;10467361;28;20557;-78
2022/05/09 09:28:27;;;;;;;2.60;1.30;;;;;;;;;;10451851;28;20450;-72
2022/05/09 09:33:27;;;;;;;6.60;1.40;;;;;;;;;;10484642;28;20078;-76
2022/05/09 09:38:33;;;;;;;3.35;1.08;;;;;;;;;;10484695;28;20526;-75
2022/05/09 09:43:34;;;;;;;5.07;1.20;;;;;;;;;;10467326;28;20027;-72
2022/05/09 09:48:34;;;;;;;3.55;1.85;;;;;;;;;;10451174;28;20024;-80
2022/05/09 09:53:38;;;;;;;3.70;1.08;;;;;;;;;;10467707;28;20031;-70
2022/05/09 09:58:39;;;;;;;6.95;1.60;;;;;;;;;;10467381;28;20028;-76
2022/05/09 10:03:41;;;;;;;2.83;0.93;;;;;;;;;;10450809;28;20079;-71
2022/05/09 10:08:42;;;;;;;4.28;1.45;;;;;;;;;;10466949;28;20028;-72
2022/05/09 10:13:44;;;;;;;3.85;1.33;;;;;;;;;;10467237;28;20032;-70
2022/05/09 10:18:46;;;;;;;2.28;1.13;;;;;;;;;;10466699;28;20069;-72
2022/05/09 10:29:14;;;;;;;1.65;0.70;;;;;;;;;;10486440;28;20028;-71
2022/05/09 10:34:20;;;;;;;1.77;0.75;;;;;;;;;;10470120;28;20133;-74
2022/05/09 10:39:26;;;;;;;1.85;1.02;;;;;;;;;;10474039;28;20407;-72
2022/05/09 10:44:40;;;;;;;5.10;1.42;;;;;;;;;;10474092;28;20511;-71
2022/05/09 10:49:40;;;;;;;1.95;1.10;;;;;;;;;;10490601;28;20013;-73
2022/05/09 10:54:43;;;;;;;2.00;1.20;;;;;;;;;;10491589;28;20508;-71
2022/05/09 10:59:45;;;;;;;5.57;1.13;;;;;;;;;;10491919;28;20024;-72
2022/05/09 11:04:45;;;;;;;2.70;0.80;;;;;;;;;;10473101;28;20030;-75
2022/05/09 11:10:04;;;;;;;3.22;1.27;;;;;;;;;;10491543;28;20042;-71
2022/05/09 11:15:15;;;;;;;0.80;0.63;;;;;;;;;;10472706;28;20086;-72
2022/05/09 11:20:16;;;;;;;3.22;1.38;;;;;;;;;;10473711;28;20052;-71
2022/05/09 11:25:32;;;;;;;1.77;1.10;;;;;;;;;;10490615;28;20567;-71
2022/05/09 11:30:40;;;;;;;4.00;1.20;;;;;;;;;;10473144;28;20020;-71
2022/05/09 11:35:41;;;;;;;6.38;1.45;;;;;;;;;;10472483;28;20049;-74
2022/05/09 11:40:55;;;;;;;4.80;2.00;;;;;;;;;;10489871;28;20420;-71
2022/05/09 11:46:01;;;;;;;3.28;1.20;;;;;;;;;;10487549;28;20033;-72
2022/05/09 11:51:04;;;;;;;4.38;1.70;;;;;;;;;;10472052;28;20020;-72
2022/05/09 11:56:05;;;;;;;6.07;1.27;;;;;;;;;;10471735;28;20085;-71
2022/05/09 12:01:06;;;;;;;1.90;0.70;;;;;;;;;;10471204;28;20021;-70
2022/05/09 12:06:07;;;;;;;5.07;0.80;;;;;;;;;;10470836;28;20015;-70
2022/05/09 12:11:17;;;;;;;5.10;1.92;;;;;;;;;;10453918;28;20021;-70
2022/05/09 12:16:35;;;;;;;2.40;0.70;;;;;;;;;;10470379;28;20047;-69
2022/05/09 12:21:38;;;;;;;1.47;1.00;;;;;;;;;;10488044;28;20035;-72
2022/05/09 12:26:39;;;;;;;1.83;0.93;;;;;;;;;;10469900;28;20622;-70
2022/05/09 12:31:48;;;;;;;1.27;0.82;;;;;;;;;;10453493;28;20511;-70
2022/05/09 12:36:50;;;;;;;2.75;0.88;;;;;;;;;;10469284;28;20357;-69
2022/05/09 12:41:58;;;;;;;1.80;1.00;;;;;;;;;;10469147;28;20036;-69
2022/05/09 12:47:01;;;;;;;3.72;0.90;;;;;;;;;;10468658;28;20480;-69
2022/05/09 12:52:01;;;;;;;2.42;1.63;;;;;;;;;;10452587;28;20516;-70
2022/05/09 12:57:03;;;;;;;3.53;1.08;;;;;;;;;;10468846;28;20138;-70
2022/05/09 13:02:04;;;;;;;5.25;0.85;;;;;;;;;;10485131;28;20490;-68
2022/05/09 13:07:07;;;;;;;5.20;1.33;;;;;;;;;;10468968;28;20119;-69
2022/05/09 13:12:13;;;;;;;2.00;1.00;;;;;;;;;;10490042;28;20024;-70
2022/05/09 13:17:33;;;;;;;3.40;1.83;;;;;;;;;;10468118;28;20028;-69
2022/05/09 13:22:35;;;;;;;7.20;1.60;;;;;;;;;;10465615;28;20036;-73
2022/05/09 13:27:36;;;;;;;2.42;1.13;;;;;;;;;;10467185;28;20622;-70
2022/05/09 13:32:37;;;;;;;2.28;1.00;;;;;;;;;;10468606;28;20083;-69
2022/05/09 13:37:37;;;;;;;4.20;2.80;;;;;;;;;;10484383;28;20506;-73
2022/05/09 13:42:39;;;;;;;4.47;1.20;;;;;;;;;;10485689;28;20105;-70
2022/05/09 13:47:41;;;;;;;6.18;1.83;;;;;;;;;;10470887;28;20809;-74
2022/05/09 13:52:46;;;;;;;2.08;1.15;;;;;;;;;;10485941;28;20020;-71
2022/05/09 13:57:49;;;;;;;1.63;1.20;;;;;;;;;;10487400;28;20062;-74
2022/05/09 14:02:58;;;;;;;1.80;1.33;;;;;;;;;;10484545;28;20067;-72
2022/05/09 14:08:03;;;;;;;1.90;1.23;;;;;;;;;;10490749;28;20048;-72
2022/05/09 14:13:23;;;;;;;1.75;1.02;;;;;;;;;;10495962;28;20103;-71
2022/05/09 14:18:27;;;;;;;1.83;1.23;;;;;;;;;;10477716;28;20031;-73
2022/05/09 14:23:28;;;;;;;6.43;1.42;;;;;;;;;;10512434;28;20518;-71
2022/05/09 14:33:48;;;;;;;4.22;1.70;;;;;;;;;;10510886;28;20058;-70
2022/05/09 14:38:53;;;;;;;5.38;1.30;;;;;;;;;;10518513;28;20057;-71
2022/05/09 14:44:14;;;;;;;3.10;1.10;;;;;;;;;;10477420;28;20133;-76
2022/05/09 14:49:16;;;;;;;4.70;1.30;;;;;;;;;;10476943;28;20035;-71
2022/05/09 14:54:18;;;;;;;3.17;1.45;;;;;;;;;;10489650;28;20021;-71
2022/05/09 14:59:20;;;;;;;3.33;1.50;;;;;;;;;;10489633;28;20025;-75
2022/05/09 15:04:20;;;;;;;2.55;1.50;;;;;;;;;;10472991;28;20028;-71
2022/05/09 15:09:21;;;;;;;1.92;0.70;;;;;;;;;;10472846;28;20435;-72
2022/05/09 15:14:21;;;;;;;4.38;1.88;;;;;;;;;;10472612;28;20526;-71
2022/05/09 15:19:25;;;;;;;6.95;1.52;;;;;;;;;;10470872;28;20330;-74
2022/05/09 15:24:25;;;;;;;8.00;2.10;;;;;;;;;;10455788;28;20402;-71
2022/05/09 15:29:27;;;;;;;4.47;1.52;;;;;;;;;;10489258;28;20016;-74
2022/05/09 15:34:28;;;;;;;4.93;1.30;;;;;;;;;;10472278;28;20482;-74
2022/05/09 15:39:28;;;;;;;4.13;2.07;;;;;;;;;;10471802;28;20016;-70
2022/05/09 15:44:29;;;;;;;2.80;1.27;;;;;;;;;;10471123;28;20009;-73
2022/05/09 15:49:31;;;;;;;4.18;1.50;;;;;;;;;;10489071;28;20013;-71
2022/05/09 15:54:32;;;;;;;3.03;1.58;;;;;;;;;;10454595;28;20047;-72
2022/05/09 15:59:32;;;;;;;2.30;1.60;;;;;;;;;;10454569;28;20453;-70
2022/05/09 16:04:32;;;;;;;6.00;1.77;;;;;;;;;;10488842;28;20013;-70
2022/05/09 16:14:51;;;;;;;6.90;1.95;;;;;;;;;;10489228;28;20099;-71
2022/05/09 16:19:58;;;;;;;9.32;4.60;;;;;;;;;;10488386;28;20020;-71
2022/05/09 16:24:58;;;;;;;8.50;2.15;;;;;;;;;;10469885;28;20104;-71
2022/05/09 16:30:01;;;;;;;7.93;1.75;;;;;;;;;;10469884;28;20536;-71
2022/05/09 16:35:01;;;;;;;2.20;1.20;;;;;;;;;;10470087;28;20132;-78
2022/05/09 16:40:01;;;;;;;8.65;2.58;;;;;;;;;;10470428;28;20024;-71
2022/05/09 16:45:02;;;;;;;2.30;1.70;;;;;;;;;;10469596;28;20021;-71
2022/05/09 16:50:02;;;;;;;2.67;1.83;;;;;;;;;;10485065;28;20274;-71
2022/05/09 16:55:04;;;;;;;4.38;1.95;;;;;;;;;;10484690;28;20036;-73
2022/05/09 17:00:05;;;;;;;3.13;1.83;;;;;;;;;;10489968;28;20049;-74
2022/05/09 17:05:06;;;;;;;6.50;1.80;;;;;;;;;;10479634;28;20023;-70
2022/05/09 17:10:09;;;;;;;16.40;2.58;;;;;;;;;;10471043;28;20491;-71
2022/05/09 17:15:29;;;;;;;9.20;2.60;;;;;;;;;;10466371;28;20109;-71
2022/05/09 17:20:30;;;;;;;10.82;2.30;;;;;;;;;;10507033;28;20047;-71
2022/05/09 17:25:36;;;;;;;8.52;2.15;;;;;;;;;;10496575;28;20051;-71
2022/05/09 17:30:37;;;;;;;8.18;1.98;;;;;;;;;;10501766;28;20024;-70
2022/05/09 17:40:58;;;;;;;2.88;1.95;;;;;;;;;;10492633;28;20040;-71
2022/05/09 17:45:59;;;;;;;4.10;1.70;;;;;;;;;;10498344;28;20436;-71
2022/05/09 17:50:59;;;;;;;1.77;1.20;;;;;;;;;;10485309;28;20015;-75
2022/05/09 17:56:00;;;;;;;3.60;1.67;;;;;;;;;;10484036;28;20036;-71
2022/05/09 18:01:11;;;;;;;3.45;1.60;;;;;;;;;;10477109;28;20023;-71
2022/05/09 18:06:11;;;;;;;3.50;1.70;;;;;;;;;;10479923;28;20032;-75
2022/05/09 18:11:13;;;;;;;3.53;1.85;;;;;;;;;;10472984;28;20051;-73
2022/05/09 18:16:14;;;;;;;4.80;1.67;;;;;;;;;;10495551;28;20022;-74
2022/05/09 18:21:19;;;;;;;7.38;1.65;;;;;;;;;;10471787;28;20024;-72
2022/05/09 18:26:19;;;;;;;8.25;2.10;;;;;;;;;;10468738;28;20542;-74
2022/05/09 18:31:20;;;;;;;4.13;2.60;;;;;;;;;;10484034;28;20028;-71
2022/05/09 18:36:20;;;;;;;8.88;2.50;;;;;;;;;;10499143;28;20048;-71
2022/05/09 18:41:22;;;;;;;12.43;3.05;;;;;;;;;;10489302;28;20036;-71
2022/05/09 18:46:23;;;;;;;5.05;2.97;;;;;;;;;;10493548;28;20119;-72
2022/05/09 18:56:42;;;;;;;6.65;2.97;;;;;;;;;;10495111;28;20066;-72
2022/05/09 19:01:43;;;;;;;8.70;2.92;;;;;;;;;;10474043;28;20520;-72
2022/05/09 19:06:44;;;;;;;9.32;3.38;;;;;;;;;;10459106;28;20056;-71
2022/05/09 19:11:46;;;;;;;5.70;2.60;;;;;;;;;;10458612;28;20073;-71
2022/05/09 19:16:47;;;;;;;9.40;2.92;;;;;;;;;;10473829;28;20029;-75
2022/05/09 19:21:47;;;;;;;8.63;3.42;;;;;;;;;;10476919;28;20051;-72
2022/05/09 19:26:48;;;;;;;10.53;2.83;;;;;;;;;;10491338;28;20024;-71
2022/05/09 19:31:48;;;;;;;11.57;3.20;;;;;;;;;;10477277;28;20028;-71
2022/05/09 19:36:49;;;;;;;7.25;3.25;;;;;;;;;;10471177;28;20147;-71
2022/05/09 19:41:50;;;;;;;3.37;3.00;;;;;;;;;;10489360;28;20035;-70
2022/05/09 19:46:52;;;;;;;8.07;2.95;;;;;;;;;;10471016;28;20067;-70
2022/05/09 19:54:00;;;;;;;5.82;3.38;;;;;;;;;;10470425;28;20020;-72
2022/05/09 19:57:13;;;;;;;4.43;2.90;;;;;;;;;;10488031;28;20059;-71
2022/05/09 20:02:15;;;;;;;7.07;2.97;;;;;;;;;;10486782;28;20571;-71
2022/05/09 20:07:16;;;;;;;7.60;3.03;;;;;;;;;;10487004;28;20081;-74
2022/05/09 20:12:23;;;;;;;4.40;2.63;;;;;;;;;;10487789;28;20081;-72
2022/05/09 20:17:24;;;;;;;5.38;3.13;;;;;;;;;;10469687;28;20102;-74
2022/05/09 20:22:35;;;;;;;10.75;2.55;;;;;;;;;;10487039;28;20031;-73
2022/05/09 20:32:55;;;;;;;5.00;2.83;;;;;;;;;;10480024;23;20049;-75
2022/05/09 20:37:56;;;;;;;8.77;3.10;;;;;;;;;;10445771;28;20013;-71
2022/05/09 20:42:58;;;;;;;14.75;2.75;;;;;;;;;;10445238;28;20415;-71
2022/05/09 20:47:58;;;;;;;2.55;2.30;;;;;;;;;;10427748;28;20427;-71
2022/05/09 20:53:01;;;;;;;6.38;2.78;;;;;;;;;;10443653;28;20021;-74
2022/05/09 20:58:01;;;;;;;8.80;2.53;;;;;;;;;;10433109;28;20424;-72
2022/05/09 21:03:01;;;;;;;8.30;2.90;;;;;;;;;;10451665;28;20029;-74
2022/05/09 21:08:04;;;;;;;5.20;3.00;;;;;;;;;;10462943;28;20119;-72
2022/05/09 21:13:04;;;;;;;3.55;2.30;;;;;;;;;;10469164;28;20025;-71
2022/05/09 21:18:05;;;;;;;6.07;3.10;;;;;;;;;;10460683;28;20040;-71
2022/05/09 21:23:07;;;;;;;5.50;2.63;;;;;;;;;;10465351;28;20462;-72
2022/05/09 21:28:10;;;;;;;5.53;2.58;;;;;;;;;;10470247;28;20036;-72
2022/05/09 21:33:11;;;;;;;6.03;2.63;;;;;;;;;;10487012;28;20091;-72
2022/05/09 21:38:14;;;;;;;8.70;2.63;;;;;;;;;;10512286;28;20492;-72
2022/05/09 21:43:15;;;;;;;3.60;2.50;;;;;;;;;;10516353;28;20063;-74
2022/05/09 21:48:15;;;;;;;8.50;2.10;;;;;;;;;;10514107;28;20127;-70
2022/05/09 21:53:18;;;;;;;4.20;2.23;;;;;;;;;;10508777;28;20024;-71
2022/05/09 21:58:19;;;;;;;3.10;2.60;;;;;;;;;;10509490;28;20127;-72
2022/05/09 22:03:19;;;;;;;4.00;2.80;;;;;;;;;;10505434;28;20020;-76
2022/05/09 22:08:20;;;;;;;6.90;2.07;;;;;;;;;;10511647;28;20028;-69
2022/05/09 22:13:20;;;;;;;5.93;2.25;;;;;;;;;;10503436;28;20785;-72
2022/05/09 22:18:20;;;;;;;10.30;2.63;;;;;;;;;;10506123;28;20031;-70
2022/05/09 22:23:21;;;;;;;10.83;3.10;;;;;;;;;;10513641;28;20410;-73
2022/05/09 22:28:24;;;;;;;3.38;2.28;;;;;;;;;;10500394;28;20034;-73
2022/05/09 22:33:24;;;;;;;6.18;2.25;;;;;;;;;;10508106;28;20242;-75
2022/05/09 22:38:30;;;;;;;7.75;2.33;;;;;;;;;;10517817;28;20455;-72
2022/05/09 22:43:30;;;;;;;5.07;2.38;;;;;;;;;;10510728;28;20033;-73
2022/05/09 22:48:32;;;;;;;4.82;2.60;;;;;;;;;;10512898;28;20033;-73
2022/05/09 22:53:34;;;;;;;2.63;2.17;;;;;;;;;;10522849;28;20039;-71
2022/05/09 22:58:36;;;;;;;6.47;1.90;;;;;;;;;;10520720;28;20051;-74
2022/05/09 23:03:37;;;;;;;5.22;2.30;;;;;;;;;;10509479;28;20063;-69
2022/05/09 23:08:37;;;;;;;4.13;2.10;;;;;;;;;;10509064;28;20111;-76
2022/05/09 23:13:37;;;;;;;3.83;2.22;;;;;;;;;;10506792;28;20028;-76
2022/05/09 23:18:39;;;;;;;3.70;2.05;;;;;;;;;;10507053;28;20145;-70
2022/05/09 23:23:39;;;;;;;3.95;2.13;;;;;;;;;;10506729;28;20115;-71
2022/05/09 23:28:40;;;;;;;3.83;1.67;;;;;;;;;;10489773;28;20476;-71
2022/05/09 23:33:43;;;;;;;5.28;1.50;;;;;;;;;;10506361;28;20550;-71
2022/05/09 23:38:43;;;;;;;3.15;1.70;;;;;;;;;;10472334;28;20566;-75
2022/05/09 23:43:45;;;;;;;3.88;2.03;;;;;;;;;;10488024;28;20028;-75
2022/05/09 23:48:48;;;;;;;6.22;1.67;;;;;;;;;;10505450;28;20035;-72
2022/05/09 23:53:49;;;;;;;3.10;1.92;;;;;;;;;;10488886;28;20032;-76
2022/05/09 23:58:49;;;;;;;2.57;1.87;;;;;;;;;;10471722;28;20567;-73
